Archival Weather

Chicago O'Hare International

Chicago, Illinois (KORD)

Report from: Sunday, November 19, 2023 9:51 PM CST
Current time: Sunday, February 25, 2024 4:56 PM CST

Current weather – Weather history – Daily summaries
Weather forecast

Temperature7.8°C (46.0°F)
Wind chill5.5°C (41.9°F)
Dew point3.9°C (39.0°F)
Winds 7 kts (3.6 m/s, 8.1 mph) East-Northeast (60°)
Visibility10 mi. (16.1 km)
Clouds Ceiling: Broken clouds 21,000 ft. (6,401 m)
Broken clouds 25,000 ft. (7,620 m)
Altimeter30.10 in.Hg (1019 mB)
Relative humidity76 %
Density altitude-955 ft. (-291 m)
Sea-level pressure101.9 kPa (1019 mB, 30.10 in.Hg)
Remarks Automated weather observing station with precipitation discriminator
Flight conditions Visual Meteorological Conditions
Raw dataKORD 200351Z 06007KT 10SM BKN210 BKN250 08/04 A3010 RMK AO2 SLP194 T00780039
An error has occurred. This application may no longer respond until reloaded. Reload 🗙